Time;durP1;ratioP1;P1;durP2;ratioP2;P2;SDS_P1;SDS_P2;PMS_P1;PMS_P2;Temp;Humidity;BMP_temperature;BMP_pressure;BME280_temperature;BME280_humidity;BME280_pressure;Samples;Min_cycle;Max_cycle;Signal;HPM_P1;HPM_P2
2023/07/14 00:00:35;;;;;;;6.10;3.80;;;;;;;17.13;75.94;101195.38;4931027;29;20483;-70
2023/07/14 00:03:06;;;;;;;3.77;3.37;;;;;;;17.04;75.50;101199.50;4929202;29;20633;-73
2023/07/14 00:05:38;;;;;;;4.30;3.10;;;;;;;17.00;76.98;101211.16;4933455;29;20880;-73
2023/07/14 00:08:15;;;;;;;3.83;3.53;;;;;;;16.95;76.21;101204.50;4929110;29;20465;-71
2023/07/14 00:10:44;;;;;;;3.20;2.90;;;;;;;17.48;75.32;101203.50;4931630;29;20411;-70
2023/07/14 00:13:16;;;;;;;4.63;4.10;;;;;;;17.29;75.68;101202.00;4907796;29;20551;-72
2023/07/14 00:15:46;;;;;;;5.60;3.70;;;;;;;17.54;74.94;101194.34;4935005;29;20451;-71
2023/07/14 00:18:20;;;;;;;4.50;3.27;;;;;;;17.59;74.70;101197.22;4929715;29;20452;-71
2023/07/14 00:20:50;;;;;;;5.20;3.60;;;;;;;17.26;75.75;101191.53;4914544;29;20472;-71
2023/07/14 00:23:19;;;;;;;3.90;3.23;;;;;;;17.16;74.43;101188.56;4930166;29;20494;-71
2023/07/14 00:25:48;;;;;;;3.50;3.00;;;;;;;16.93;75.50;101192.97;4930628;29;20928;-71
2023/07/14 00:28:20;;;;;;;3.53;3.07;;;;;;;16.92;76.93;101191.31;4933584;29;20562;-71
2023/07/14 00:30:50;;;;;;;3.50;3.20;;;;;;;17.04;77.55;101190.50;4913554;29;20447;-71
2023/07/14 00:33:21;;;;;;;3.83;3.27;;;;;;;17.39;75.97;101192.13;4927797;29;20476;-71
2023/07/14 00:35:51;;;;;;;9.47;5.83;;;;;;;16.89;76.14;101188.22;4922605;29;20448;-71
2023/07/14 00:38:21;;;;;;;4.53;3.00;;;;;;;17.45;75.20;101193.06;4930926;29;20948;-70
2023/07/14 00:40:50;;;;;;;5.13;3.33;;;;;;;17.32;74.97;101193.31;4930556;29;20411;-71
2023/07/14 00:43:25;;;;;;;4.40;3.13;;;;;;;17.14;75.38;101193.44;4926207;29;20449;-69
2023/07/14 00:45:57;;;;;;;7.30;4.33;;;;;;;17.04;77.14;101185.03;4932222;29;20491;-69
2023/07/14 00:48:30;;;;;;;4.23;2.80;;;;;;;17.11;75.93;101186.56;4930991;29;20492;-72
2023/07/14 00:51:04;;;;;;;4.53;3.63;;;;;;;17.46;75.14;101189.25;4934046;29;20526;-72
2023/07/14 00:53:37;;;;;;;3.70;3.40;;;;;;;17.29;75.62;101188.31;4932368;29;20435;-71
2023/07/14 00:56:40;;;;;;;3.67;3.23;;;;;;;17.44;75.40;101187.81;4933945;29;20476;-70
2023/07/14 00:59:16;;;;;;;4.97;3.90;;;;;;;17.24;75.42;101186.28;4931887;29;21035;-72
2023/07/14 01:02:18;;;;;;;4.33;3.70;;;;;;;17.42;75.76;101188.09;4930685;29;20440;-70
2023/07/14 01:04:53;;;;;;;3.70;3.37;;;;;;;17.35;75.79;101185.47;4923343;29;20464;-71
2023/07/14 01:07:27;;;;;;;4.13;3.40;;;;;;;17.87;73.62;101185.50;4938407;29;20464;-71
2023/07/14 01:09:58;;;;;;;3.43;3.13;;;;;;;17.73;74.32;101184.09;4938010;29;20924;-71
2023/07/14 01:12:32;;;;;;;4.90;3.33;;;;;;;17.64;73.14;101183.66;4933800;29;20441;-72
2023/07/14 01:15:01;;;;;;;3.50;3.20;;;;;;;17.66;73.54;101184.25;4930173;29;20968;-71
2023/07/14 01:17:31;;;;;;;4.47;3.37;;;;;;;17.68;73.90;101182.09;4940112;29;20526;-71
2023/07/14 01:20:07;;;;;;;4.50;4.10;;;;;;;17.14;74.99;101186.06;4933889;29;20454;-71
2023/07/14 01:22:44;;;;;;;4.53;4.13;;;;;;;16.94;76.51;101182.88;4936415;29;20788;-72
2023/07/14 01:25:23;;;;;;;4.43;3.80;;;;;;;17.01;78.28;101180.00;4932914;29;20429;-70
2023/07/14 01:27:54;;;;;;;4.23;3.83;;;;;;;17.25;75.97;101187.13;4933513;29;20430;-72
2023/07/14 01:30:24;;;;;;;5.27;3.67;;;;;;;17.07;76.40;101190.84;4937606;29;20827;-71
2023/07/14 01:32:54;;;;;;;4.30;3.63;;;;;;;17.09;78.21;101194.16;4934115;29;20495;-71
2023/07/14 01:35:31;;;;;;;3.67;3.30;;;;;;;17.37;75.84;101199.75;4930137;29;20471;-71
2023/07/14 01:38:01;;;;;;;6.33;4.60;;;;;;;16.86;77.26;101192.25;4941007;29;20532;-72
2023/07/14 01:40:33;;;;;;;4.93;4.43;;;;;;;16.90;79.11;101190.69;4939563;29;20791;-70
2023/07/14 01:43:06;;;;;;;4.00;3.60;;;;;;;17.09;78.64;101194.16;4942165;29;20677;-70
2023/07/14 01:45:42;;;;;;;9.53;3.60;;;;;;;17.12;77.78;101199.16;4916740;29;20487;-70
2023/07/14 01:48:14;;;;;;;5.23;3.80;;;;;;;17.34;76.36;101197.47;4931884;29;20442;-70
2023/07/14 01:50:50;;;;;;;4.90;4.40;;;;;;;17.01;77.94;101201.88;4911367;29;20958;-69
2023/07/14 01:53:23;;;;;;;10.63;4.40;;;;;;;16.95;78.26;101201.75;4926631;29;20458;-72
2023/07/14 01:55:55;;;;;;;4.10;3.70;;;;;;;17.02;77.73;101198.91;4930258;29;20468;-69
2023/07/14 01:58:32;;;;;;;5.07;4.10;;;;;;;17.03;78.68;101202.50;4930000;29;20446;-70
2023/07/14 02:01:04;;;;;;;6.50;4.03;;;;;;;17.12;77.78;101204.63;4909012;29;20452;-71
2023/07/14 02:03:38;;;;;;;4.77;4.27;;;;;;;17.25;77.06;101211.75;4925560;29;20454;-72
2023/07/14 02:06:08;;;;;;;5.43;4.00;;;;;;;17.18;77.68;101209.16;4928568;29;20454;-71
2023/07/14 02:08:37;;;;;;;5.63;4.60;;;;;;;17.14;78.39;101212.56;4928049;29;20453;-70
2023/07/14 02:11:06;;;;;;;6.03;4.17;;;;;;;17.26;77.42;101211.53;4916458;29;20458;-72
2023/07/14 02:13:37;;;;;;;7.33;3.53;;;;;;;17.53;76.39;101208.25;4923086;29;20973;-72
2023/07/14 02:16:06;;;;;;;5.93;5.10;;;;;;;17.64;75.69;101208.28;4926582;29;21020;-71
2023/07/14 02:18:36;;;;;;;4.67;4.27;;;;;;;17.53;76.20;101217.31;4927373;29;20530;-71
2023/07/14 02:21:06;;;;;;;4.30;3.90;;;;;;;17.44;76.48;101216.03;4933617;29;20508;-72
2023/07/14 02:23:37;;;;;;;4.47;4.07;;;;;;;17.90;74.89;101217.03;4928245;29;20973;-72
2023/07/14 02:26:14;;;;;;;4.90;4.10;;;;;;;18.04;73.80;101223.91;4917066;29;20508;-72
2023/07/14 02:28:44;;;;;;;4.57;4.17;;;;;;;17.50;75.28;101215.06;4926378;29;20459;-71
2023/07/14 02:31:22;;;;;;;5.80;4.13;;;;;;;17.49;75.90;101220.75;4932003;29;20524;-73
2023/07/14 02:33:53;;;;;;;4.87;4.20;;;;;;;17.35;77.04;101226.50;4911056;29;20442;-71
2023/07/14 02:36:33;;;;;;;5.00;4.60;;;;;;;17.55;75.80;101231.59;4931793;29;20446;-71
2023/07/14 02:39:04;;;;;;;6.30;4.73;;;;;;;17.15;77.15;101234.22;4921630;29;21088;-71
2023/07/14 02:41:38;;;;;;;4.80;4.40;;;;;;;17.04;77.88;101240.50;4930865;29;20798;-71
2023/07/14 02:44:14;;;;;;;5.07;4.57;;;;;;;16.91;78.62;101230.63;4931741;29;20453;-72
2023/07/14 02:46:47;;;;;;;4.87;4.33;;;;;;;16.81;79.98;101230.38;4932031;29;20408;-71
2023/07/14 02:49:17;;;;;;;5.17;4.60;;;;;;;17.43;77.32;101233.50;4928855;29;20437;-70
2023/07/14 02:51:46;;;;;;;5.30;4.80;;;;;;;17.33;77.07;101233.28;4929526;29;20510;-70
2023/07/14 02:54:15;;;;;;;9.13;4.47;;;;;;;17.29;77.73;101240.28;4935426;29;20911;-71
2023/07/14 02:56:44;;;;;;;5.40;4.90;;;;;;;17.00;78.75;101233.84;4930719;29;20551;-70
2023/07/14 02:59:17;;;;;;;7.13;5.73;;;;;;;16.97;79.30;101241.69;4916222;29;20448;-70
2023/07/14 03:01:46;;;;;;;6.30;5.10;;;;;;;17.06;78.19;101240.28;4918067;29;20964;-70
2023/07/14 03:04:15;;;;;;;5.73;4.80;;;;;;;17.43;77.93;101243.63;4933672;29;21008;-70
2023/07/14 03:06:44;;;;;;;5.23;4.70;;;;;;;17.28;77.69;101249.59;4930298;29;20428;-70
2023/07/14 03:09:16;;;;;;;6.33;5.83;;;;;;;17.29;78.11;101243.84;4933773;29;21034;-70
2023/07/14 03:11:45;;;;;;;6.50;5.90;;;;;;;17.76;76.19;101255.66;4934048;29;20458;-71
2023/07/14 03:14:16;;;;;;;6.27;4.90;;;;;;;17.86;75.16;101251.47;4932969;29;20462;-70
2023/07/14 03:16:45;;;;;;;6.03;4.90;;;;;;;17.67;76.40;101251.59;4929646;29;20842;-71
2023/07/14 03:19:15;;;;;;;5.70;5.17;;;;;;;18.03;74.55;101246.88;4932089;29;20930;-70
2023/07/14 03:21:45;;;;;;;6.40;5.90;;;;;;;17.47;76.49;101247.56;4928417;29;20460;-69
2023/07/14 03:24:13;;;;;;;7.20;5.50;;;;;;;17.98;74.42;101246.78;4935132;29;20793;-70
2023/07/14 03:26:42;;;;;;;8.90;5.67;;;;;;;17.89;74.45;101249.06;4933642;29;20399;-72
2023/07/14 03:29:12;;;;;;;11.60;5.40;;;;;;;17.99;75.03;101243.78;4934991;29;20948;-72
2023/07/14 03:31:42;;;;;;;7.80;5.17;;;;;;;17.92;75.32;101247.72;4924474;29;21405;-71
2023/07/14 03:34:11;;;;;;;5.60;5.10;;;;;;;17.93;74.95;101249.41;4927961;29;20464;-70
2023/07/14 03:36:40;;;;;;;4.80;4.30;;;;;;;18.13;74.71;101249.81;4929400;29;20454;-70
2023/07/14 03:39:25;;;;;;;6.03;5.10;;;;;;;18.42;72.99;101251.50;4931281;29;20484;-73
2023/07/14 03:41:56;;;;;;;5.37;4.60;;;;;;;18.79;71.78;101259.31;4933558;29;20490;-70
2023/07/14 03:44:26;;;;;;;5.60;5.10;;;;;;;18.63;71.62;101250.84;4926621;29;20745;-73
2023/07/14 03:46:56;;;;;;;5.53;4.67;;;;;;;18.97;69.96;101256.34;4938059;29;20885;-70
2023/07/14 03:49:26;;;;;;;5.80;5.30;;;;;;;19.26;69.34;101257.09;4929943;29;20427;-72
2023/07/14 03:51:55;;;;;;;6.27;5.40;;;;;;;19.24;68.69;101261.97;4934137;29;20501;-70
2023/07/14 03:54:25;;;;;;;6.70;5.03;;;;;;;19.65;67.30;101252.47;4934308;29;20472;-69
2023/07/14 03:56:54;;;;;;;7.03;5.27;;;;;;;20.02;66.41;101250.78;4933259;29;20973;-71
2023/07/14 03:59:23;;;;;;;8.60;6.50;;;;;;;20.21;65.85;101246.59;4913865;29;20452;-69
2023/07/14 04:01:52;;;;;;;6.37;5.80;;;;;;;20.35;64.76;101253.38;4932796;29;20523;-70
2023/07/14 04:04:23;;;;;;;9.67;5.80;;;;;;;20.30;64.93;101249.72;4917458;29;20940;-69
2023/07/14 04:06:54;;;;;;;8.20;5.87;;;;;;;20.41;64.11;101256.19;4934709;29;20434;-70
2023/07/14 04:09:24;;;;;;;7.00;4.60;;;;;;;20.77;63.05;101255.44;4934029;29;20415;-70
2023/07/14 04:11:53;;;;;;;6.83;5.17;;;;;;;21.42;60.90;101248.84;4911170;29;20437;-71
2023/07/14 04:14:22;;;;;;;5.23;4.63;;;;;;;21.62;59.90;101249.81;4913200;29;20418;-70
2023/07/14 04:16:51;;;;;;;7.70;6.00;;;;;;;21.81;58.95;101258.44;4930572;29;20439;-69
2023/07/14 04:19:22;;;;;;;6.40;5.27;;;;;;;22.21;57.85;101252.31;4925304;29;20448;-70
2023/07/14 04:21:51;;;;;;;6.33;5.53;;;;;;;22.42;56.87;101255.94;4935063;29;20403;-71
2023/07/14 04:24:20;;;;;;;6.17;4.70;;;;;;;22.58;56.74;101254.03;4933166;29;20415;-70
2023/07/14 04:26:49;;;;;;;6.13;5.53;;;;;;;22.59;56.63;101251.03;4929224;29;20460;-71
2023/07/14 04:29:18;;;;;;;6.23;5.70;;;;;;;22.83;55.21;101262.38;4933908;29;20506;-72
2023/07/14 04:31:47;;;;;;;8.43;5.57;;;;;;;23.15;54.73;101264.88;4934901;29;20431;-70
2023/07/14 04:34:16;;;;;;;8.20;6.87;;;;;;;;;;4932492;29;20451;-73
2023/07/14 04:36:48;;;;;;;5.80;5.13;;;;;;;23.00;54.71;101268.47;4927426;29;20468;-72
2023/07/14 04:39:17;;;;;;;6.67;6.00;;;;;;;23.09;54.83;101272.31;4933310;29;20447;-71
2023/07/14 04:41:46;;;;;;;6.20;5.70;;;;;;;22.73;54.63;101273.41;4931233;29;20406;-71
2023/07/14 04:44:16;;;;;;;7.77;5.30;;;;;;;23.10;54.84;101278.69;4934183;29;20995;-70
2023/07/14 04:46:46;;;;;;;6.00;5.40;;;;;;;23.43;53.84;101269.81;4930690;29;20434;-71
2023/07/14 04:49:16;;;;;;;8.63;4.83;;;;;;;23.59;53.32;101278.94;4931722;29;20835;-72
2023/07/14 04:51:47;;;;;;;7.63;5.87;;;;;;;23.83;52.03;101278.03;4932366;29;21011;-71
2023/07/14 04:54:16;;;;;;;5.80;4.90;;;;;;;24.08;51.87;101287.34;4931924;29;20429;-71
2023/07/14 04:56:46;;;;;;;5.43;5.00;;;;;;;24.23;51.08;101284.56;4927620;29;20439;-71
2023/07/14 04:59:15;;;;;;;5.47;4.97;;;;;;;24.11;50.97;101284.00;4936317;29;20436;-71
2023/07/14 05:01:44;;;;;;;5.87;4.90;;;;;;;24.47;50.51;101281.94;4936928;29;20825;-70
2023/07/14 05:04:14;;;;;;;8.03;5.37;;;;;;;24.92;49.39;101286.41;4932726;29;20469;-72
2023/07/14 05:06:43;;;;;;;12.00;5.30;;;;;;;24.65;49.75;101295.13;4916277;29;20476;-71
2023/07/14 05:09:14;;;;;;;12.77;9.27;;;;;;;24.54;50.16;101291.59;4931277;29;20427;-70
2023/07/14 05:11:43;;;;;;;13.03;10.13;;;;;;;24.74;49.11;101298.13;4936292;29;20415;-70
2023/07/14 05:14:12;;;;;;;11.37;7.83;;;;;;;24.93;48.38;101296.38;4937322;29;20979;-71
2023/07/14 05:16:42;;;;;;;8.27;5.80;;;;;;;25.25;47.65;101293.88;4940069;29;20499;-71
2023/07/14 05:19:11;;;;;;;10.50;6.07;;;;;;;25.28;47.50;101295.22;4941503;29;20510;-72
2023/07/14 05:21:40;;;;;;;5.50;5.00;;;;;;;25.51;47.21;101292.50;4946152;29;20431;-71
2023/07/14 05:24:09;;;;;;;6.47;5.20;;;;;;;25.30;47.40;101290.22;4946565;29;20436;-72
2023/07/14 05:26:40;;;;;;;7.27;5.67;;;;;;;25.43;47.01;101297.84;4942569;29;20791;-71
2023/07/14 05:29:10;;;;;;;5.20;4.70;;;;;;;25.71;46.41;101299.00;4944370;29;20463;-71
2023/07/14 05:31:39;;;;;;;5.97;4.90;;;;;;;25.97;45.58;101294.81;4942636;29;20440;-71
2023/07/14 05:34:09;;;;;;;4.50;3.87;;;;;;;25.77;45.94;101298.66;4934866;29;20427;-72
2023/07/14 05:36:38;;;;;;;6.50;5.90;;;;;;;25.34;47.43;101289.34;4929164;29;20933;-69
2023/07/14 05:39:07;;;;;;;4.93;3.93;;;;;;;24.77;48.63;101287.31;4926812;29;20575;-72
2023/07/14 05:41:36;;;;;;;7.37;5.27;;;;;;;23.40;52.34;101296.06;4933386;29;20827;-70
2023/07/14 05:44:07;;;;;;;6.80;4.73;;;;;;;22.52;54.59;101291.81;4941722;29;20480;-71
2023/07/14 05:46:36;;;;;;;7.10;5.40;;;;;;;21.69;56.35;101291.69;4934716;29;20432;-72
2023/07/14 05:49:05;;;;;;;5.43;4.77;;;;;;;21.22;58.45;101290.81;4927460;29;20968;-72
2023/07/14 05:51:36;;;;;;;5.93;4.10;;;;;;;21.19;59.45;101292.19;4931584;29;20846;-70
2023/07/14 05:54:05;;;;;;;6.93;4.73;;;;;;;21.51;58.39;101294.06;4937329;29;20848;-71
2023/07/14 05:56:34;;;;;;;5.30;4.20;;;;;;;21.33;58.87;101289.81;4941897;29;20442;-72
2023/07/14 05:59:04;;;;;;;5.57;4.23;;;;;;;21.51;57.88;101286.63;4941064;29;20488;-70
2023/07/14 06:01:34;;;;;;;4.53;4.00;;;;;;;21.27;58.68;101288.09;4936945;29;20412;-71
2023/07/14 06:04:05;;;;;;;5.70;4.70;;;;;;;21.05;59.73;101296.44;4936254;29;20422;-70
2023/07/14 06:06:34;;;;;;;7.50;4.70;;;;;;;21.37;59.71;101292.84;4937894;29;20430;-71
2023/07/14 06:09:03;;;;;;;5.67;4.63;;;;;;;21.44;58.60;101296.22;4938194;29;20543;-70
2023/07/14 06:11:32;;;;;;;5.50;4.90;;;;;;;21.39;58.42;101290.69;4937564;29;20487;-72
2023/07/14 06:14:01;;;;;;;4.93;3.97;;;;;;;21.47;56.64;101295.69;4940881;29;20622;-71
2023/07/14 06:16:30;;;;;;;5.90;4.23;;;;;;;21.32;57.72;101301.06;4937081;29;20815;-70
2023/07/14 06:19:01;;;;;;;5.33;4.83;;;;;;;21.30;57.25;101295.03;4935681;29;20474;-71
2023/07/14 06:21:30;;;;;;;5.30;4.10;;;;;;;21.22;57.62;101301.81;4938943;29;20403;-71
2023/07/14 06:23:59;;;;;;;7.03;3.77;;;;;;;21.23;57.98;101296.06;4931701;29;20426;-71
2023/07/14 06:26:28;;;;;;;8.03;4.17;;;;;;;21.73;56.93;101302.19;4929661;29;20436;-71
2023/07/14 06:28:57;;;;;;;5.30;4.53;;;;;;;22.18;55.53;101305.19;4930297;29;20737;-73
2023/07/14 06:31:26;;;;;;;4.83;4.00;;;;;;;22.31;54.57;101301.13;4928414;29;20529;-71
2023/07/14 06:33:55;;;;;;;3.03;2.83;;;;;;;22.64;53.64;101297.94;4929623;29;20436;-72
2023/07/14 06:36:26;;;;;;;4.10;3.70;;;;;;;22.86;52.83;101301.28;4930641;29;20422;-72
2023/07/14 06:38:55;;;;;;;6.10;5.00;;;;;;;23.10;51.13;101303.50;4922079;29;21061;-69
2023/07/14 06:41:24;;;;;;;4.40;4.00;;;;;;;23.36;51.16;101302.41;4928927;29;20443;-69
2023/07/14 06:43:54;;;;;;;3.53;3.20;;;;;;;23.14;50.91;101299.94;4930441;29;20843;-71
2023/07/14 06:46:23;;;;;;;5.10;3.43;;;;;;;23.15;50.41;101303.53;4931016;29;20881;-70
2023/07/14 06:48:52;;;;;;;6.73;3.60;;;;;;;23.08;51.09;101302.97;4929712;29;20547;-72
2023/07/14 06:51:28;;;;;;;5.70;3.00;;;;;;;23.09;50.57;101296.38;4932949;29;20427;-71
2023/07/14 06:53:57;;;;;;;3.23;2.77;;;;;;;22.61;51.10;101298.44;4937783;29;20433;-70
2023/07/14 06:56:26;;;;;;;5.63;3.87;;;;;;;22.52;51.35;101289.06;4928177;29;20407;-69
2023/07/14 06:58:55;;;;;;;6.30;4.67;;;;;;;22.89;52.11;101295.25;4926430;29;20935;-69
2023/07/14 07:01:25;;;;;;;4.73;4.23;;;;;;;22.98;51.87;101297.44;4926857;29;20441;-69
2023/07/14 07:03:54;;;;;;;6.63;5.17;;;;;;;23.20;50.62;101295.25;4928726;29;20440;-69
2023/07/14 07:06:23;;;;;;;7.33;3.33;;;;;;;23.24;49.57;101296.34;4931623;29;20931;-69
2023/07/14 07:08:53;;;;;;;5.30;3.40;;;;;;;23.37;50.43;101295.81;4930600;29;20419;-69
2023/07/14 07:11:22;;;;;;;4.20;3.90;;;;;;;23.51;49.26;101302.44;4924988;29;20484;-70
2023/07/14 07:13:51;;;;;;;4.90;3.63;;;;;;;23.49;49.81;101303.81;4922872;29;20960;-70
2023/07/14 07:16:20;;;;;;;9.33;3.53;;;;;;;23.49;49.09;101303.81;4925606;29;20508;-70
2023/07/14 07:18:50;;;;;;;4.13;3.30;;;;;;;23.34;48.73;101299.94;4925116;29;20476;-70
2023/07/14 07:21:19;;;;;;;4.67;3.43;;;;;;;22.97;49.71;101302.13;4905537;29;20531;-69
2023/07/14 07:23:48;;;;;;;4.83;3.47;;;;;;;23.16;50.34;101303.25;4921355;29;20724;-70
2023/07/14 07:26:18;;;;;;;4.03;3.30;;;;;;;23.32;49.59;101299.41;4935490;29;20395;-70
2023/07/14 07:28:47;;;;;;;6.67;3.87;;;;;;;23.26;48.85;101292.22;4930282;29;20543;-69
2023/07/14 07:31:17;;;;;;;6.37;4.03;;;;;;;23.27;50.37;101295.81;4926393;29;20557;-69
2023/07/14 07:33:46;;;;;;;5.40;3.70;;;;;;;23.42;49.66;101293.03;4927745;29;20440;-70
2023/07/14 07:36:16;;;;;;;4.67;4.17;;;;;;;23.62;48.16;101293.03;4931196;29;20606;-70
2023/07/14 07:38:47;;;;;;;7.20;4.13;;;;;;;23.37;48.11;101290.28;4932544;29;20442;-71
2023/07/14 07:41:20;;;;;;;5.17;3.67;;;;;;;22.96;48.73;101284.75;4932681;29;20428;-70
2023/07/14 07:43:50;;;;;;;4.90;3.50;;;;;;;22.85;48.14;101282.28;4935071;29;20418;-69
2023/07/14 07:46:21;;;;;;;6.80;3.60;;;;;;;23.18;48.55;101275.38;4931245;29;20403;-70
2023/07/14 07:48:51;;;;;;;5.53;3.90;;;;;;;23.32;48.32;101282.81;4929689;29;20423;-70
2023/07/14 07:51:20;;;;;;;5.57;3.40;;;;;;;23.28;48.43;101280.91;4891460;29;1208247;-70
2023/07/14 07:53:49;;;;;;;5.40;3.53;;;;;;;23.53;47.77;101272.59;4932605;29;20244;-70
2023/07/14 07:56:20;;;;;;;4.70;3.60;;;;;;;23.60;47.33;101278.66;4934434;29;20432;-70
2023/07/14 07:58:49;;;;;;;5.97;2.90;;;;;;;23.62;46.12;101276.47;4931767;29;20566;-70
2023/07/14 08:01:21;;;;;;;6.30;2.90;;;;;;;23.27;46.32;101273.72;4932009;29;20799;-70
2023/07/14 08:03:52;;;;;;;3.90;3.00;;;;;;;23.28;47.79;101269.84;4932756;29;20436;-71
2023/07/14 08:06:24;;;;;;;5.03;3.20;;;;;;;23.15;47.71;101265.69;4932511;29;20437;-71
2023/07/14 08:08:53;;;;;;;4.30;2.60;;;;;;;23.15;48.44;101270.38;4933541;29;20487;-71
2023/07/14 08:11:24;;;;;;;5.13;3.17;;;;;;;23.36;47.50;101274.81;4932308;29;20443;-70
2023/07/14 08:13:53;;;;;;;4.33;3.60;;;;;;;23.47;47.29;101262.69;4934636;29;20437;-70
2023/07/14 08:16:22;;;;;;;4.87;3.27;;;;;;;23.48;47.15;101269.03;4933604;29;20458;-69
2023/07/14 08:18:51;;;;;;;5.53;3.50;;;;;;;23.54;46.44;101262.38;4926341;29;20480;-70
2023/07/14 08:21:22;;;;;;;3.10;2.80;;;;;;;23.88;46.56;101255.09;4934991;29;20471;-68
2023/07/14 08:23:51;;;;;;;4.00;2.73;;;;;;;24.21;45.95;101256.34;4930487;29;20750;-71
2023/07/14 08:26:20;;;;;;;5.07;3.10;;;;;;;24.53;46.06;101258.69;4931747;29;20498;-69
2023/07/14 08:28:50;;;;;;;5.13;2.97;;;;;;;24.60;44.55;101260.00;4929545;29;20448;-70
2023/07/14 08:31:19;;;;;;;6.63;4.07;;;;;;;24.60;44.76;101265.53;4930034;29;20440;-70
2023/07/14 08:33:50;;;;;;;4.17;2.57;;;;;;;24.79;43.69;101256.53;4930863;29;21257;-71
2023/07/14 08:36:19;;;;;;;4.57;3.43;;;;;;;24.61;44.88;101256.13;4933125;29;20528;-70
2023/07/14 08:38:48;;;;;;;4.50;2.60;;;;;;;24.31;44.63;101255.47;4926550;29;20461;-70
2023/07/14 08:41:27;;;;;;;4.40;2.90;;;;;;;24.25;45.19;101252.72;4924295;29;20825;-70
2023/07/14 08:44:23;;;;;;;7.87;2.93;;;;;;;24.28;44.86;101256.06;4928463;29;20437;-70
2023/07/14 08:47:04;;;;;;;6.87;3.20;;;;;;;23.91;45.24;101251.78;4922153;29;20434;-70
2023/07/14 08:49:38;;;;;;;5.77;3.10;;;;;;;24.00;45.94;101258.38;4930552;29;20858;-70
2023/07/14 08:52:16;;;;;;;6.53;2.97;;;;;;;24.28;46.20;101262.41;4927808;29;20427;-69
2023/07/14 08:54:48;;;;;;;3.43;2.80;;;;;;;24.56;44.13;101258.09;4932180;29;20816;-71
2023/07/14 08:57:21;;;;;;;6.33;3.10;;;;;;;24.74;44.15;101254.66;4929169;29;20958;-69
2023/07/14 08:59:55;;;;;;;3.70;3.10;;;;;;;25.08;42.89;101249.16;4930158;29;20472;-69
2023/07/14 09:02:33;;;;;;;4.80;3.50;;;;;;;25.38;43.40;101253.56;4928397;29;20486;-70
2023/07/14 09:05:06;;;;;;;5.00;3.87;;;;;;;25.79;42.69;101254.84;4933234;29;20437;-71
2023/07/14 09:07:35;;;;;;;6.43;3.10;;;;;;;26.17;40.55;101255.75;4928231;29;20462;-70
2023/07/14 09:10:05;;;;;;;2.73;2.47;;;;;;;26.14;40.55;101247.19;4931033;29;20494;-71
2023/07/14 09:12:41;;;;;;;4.10;2.40;;;;;;;25.64;41.03;101255.00;4931048;29;20431;-71
2023/07/14 09:15:19;;;;;;;3.40;3.00;;;;;;;25.63;40.94;101252.53;4931414;29;20432;-71
2023/07/14 09:17:55;;;;;;;5.23;2.90;;;;;;;25.09;41.60;101240.56;4931055;29;20830;-70
2023/07/14 09:20:41;;;;;;;3.97;2.70;;;;;;;24.59;43.00;101241.75;4933913;29;20464;-71
2023/07/14 09:23:29;;;;;;;4.33;3.13;;;;;;;24.73;43.78;101241.13;4934467;29;20443;-71
2023/07/14 09:26:08;;;;;;;5.27;3.90;;;;;;;24.82;42.80;101239.38;4933787;29;20443;-70
2023/07/14 09:28:42;;;;;;;8.20;3.90;;;;;;;25.14;43.07;101236.09;4933273;29;20460;-72
2023/07/14 09:31:30;;;;;;;8.50;3.53;;;;;;;25.41;41.95;101242.75;4932598;29;20443;-70
2023/07/14 09:34:04;;;;;;;4.10;3.30;;;;;;;25.75;40.77;101244.63;4930241;29;20437;-71
2023/07/14 09:36:35;;;;;;;4.13;3.00;;;;;;;26.17;40.02;101232.72;4923944;29;20496;-72
2023/07/14 09:39:11;;;;;;;8.60;2.90;;;;;;;26.37;39.80;101227.75;4932388;29;20743;-69
2023/07/14 09:41:40;;;;;;;3.37;2.57;;;;;;;26.40;38.69;101229.09;4932529;29;20527;-70
2023/07/14 09:44:11;;;;;;;5.33;3.63;;;;;;;25.37;40.29;101236.13;4935690;29;20433;-70
2023/07/14 09:46:48;;;;;;;9.20;4.03;;;;;;;24.76;41.64;101229.47;4933318;29;20437;-71
2023/07/14 09:49:30;;;;;;;4.23;2.73;;;;;;;24.66;42.02;101220.13;4932758;29;20444;-71
2023/07/14 09:52:10;;;;;;;7.00;2.87;;;;;;;24.86;41.76;101223.84;4932689;29;20515;-71
2023/07/14 09:54:52;;;;;;;8.23;3.30;;;;;;;24.93;42.04;101216.06;4928517;29;20499;-71
2023/07/14 09:57:24;;;;;;;7.10;3.60;;;;;;;24.88;41.82;101216.13;4936100;28;20467;-71
2023/07/14 10:00:19;;;;;;;4.20;3.30;;;;;;;25.11;41.83;101215.34;4931008;29;20801;-70
2023/07/14 10:03:04;;;;;;;4.63;3.20;;;;;;;25.57;40.99;101212.13;4925583;29;20460;-73
2023/07/14 10:05:44;;;;;;;5.27;3.50;;;;;;;25.76;40.76;101215.78;4927232;29;20464;-71
2023/07/14 10:08:30;;;;;;;4.03;3.23;;;;;;;25.80;40.26;101205.78;4940891;29;20543;-71
2023/07/14 10:11:14;;;;;;;5.30;3.00;;;;;;;25.34;40.71;101217.34;4934590;29;20447;-70
2023/07/14 10:13:48;;;;;;;5.77;3.10;;;;;;;25.35;40.83;101205.13;4930405;29;20440;-69
2023/07/14 10:16:20;;;;;;;3.17;2.87;;;;;;;25.34;41.20;101203.47;4929372;29;20924;-70
2023/07/14 10:18:55;;;;;;;4.73;3.37;;;;;;;25.24;41.15;101191.69;4927232;29;20484;-71
2023/07/14 10:21:27;;;;;;;3.77;3.00;;;;;;;25.33;40.86;101185.19;4929492;29;20471;-70
2023/07/14 10:24:05;;;;;;;4.57;3.03;;;;;;;25.04;41.33;101198.22;4926663;29;20448;-70
2023/07/14 10:26:36;;;;;;;4.30;3.10;;;;;;;25.35;41.22;101188.53;4928847;29;20447;-71
2023/07/14 10:29:08;;;;;;;3.90;3.10;;;;;;;25.56;41.36;101189.16;4934834;29;20884;-71
2023/07/14 10:31:44;;;;;;;5.80;4.07;;;;;;;25.34;40.55;101192.41;4930785;29;20440;-70
2023/07/14 10:34:43;;;;;;;4.80;2.80;;;;;;;25.09;41.40;101192.66;4929204;29;20796;-70
2023/07/14 10:37:21;;;;;;;4.83;3.30;;;;;;;24.79;43.10;101185.41;4925805;29;20460;-70
2023/07/14 10:39:57;;;;;;;4.40;3.27;;;;;;;25.29;42.22;101183.31;4925750;29;20436;-70
2023/07/14 10:42:32;;;;;;;4.47;3.00;;;;;;;25.77;41.78;101184.16;4928559;29;20444;-69
2023/07/14 10:45:01;;;;;;;5.77;3.50;;;;;;;25.90;39.98;101183.47;4927652;29;20471;-71
2023/07/14 10:47:41;;;;;;;5.23;3.17;;;;;;;25.56;41.45;101172.53;4919898;29;21005;-70
2023/07/14 10:50:19;;;;;;;6.93;3.73;;;;;;;25.00;41.61;101175.03;4932855;29;20845;-70
2023/07/14 10:52:56;;;;;;;5.43;3.70;;;;;;;24.74;40.96;101176.34;4923043;29;20419;-69
2023/07/14 10:55:29;;;;;;;24.83;4.90;;;;;;;24.86;41.82;101179.56;4922277;29;20429;-69
2023/07/14 10:58:02;;;;;;;10.60;4.40;;;;;;;24.82;41.31;101178.50;4920846;29;20466;-69
2023/07/14 11:00:37;;;;;;;5.77;3.27;;;;;;;24.87;40.88;101175.72;4929345;29;20836;-70
2023/07/14 11:03:27;;;;;;;7.07;2.60;;;;;;;24.96;40.16;101179.50;4930845;29;20436;-70
2023/07/14 11:06:04;;;;;;;3.43;3.07;;;;;;;25.26;39.13;101170.91;4974918;23;20391;-83
2023/07/14 11:09:15;;;;;;;5.20;2.90;;;;;;;25.71;39.23;101165.94;4968487;28;20458;-84
2023/07/14 11:12:50;;;;;;;2.87;2.50;;;;;;;26.53;38.53;101158.94;4964303;29;20478;-86
2023/07/14 11:15:26;;;;;;;5.43;3.37;;;;;;;27.11;36.67;101158.56;4961456;28;20462;-85
2023/07/14 11:18:04;;;;;;;5.03;2.87;;;;;;;27.29;36.13;101160.44;4980773;28;20460;-86
2023/07/14 11:20:40;;;;;;;6.17;2.90;;;;;;;26.92;35.71;101152.22;4978625;28;20455;-85
2023/07/14 11:23:26;;;;;;;4.80;2.90;;;;;;;26.52;36.41;101150.94;4968383;28;20451;-84
2023/07/14 11:26:05;;;;;;;2.70;2.43;;;;;;;26.44;36.76;101152.44;4966505;28;20467;-85
2023/07/14 11:28:48;;;;;;;6.73;3.07;;;;;;;26.70;37.03;101147.31;4956064;28;20431;-85
2023/07/14 11:31:23;;;;;;;4.50;3.20;;;;;;;27.21;35.83;101152.78;4967149;28;20419;-83
2023/07/14 11:34:11;;;;;;;3.60;3.13;;;;;;;27.05;35.17;101143.09;4962484;28;20437;-82
2023/07/14 11:36:53;;;;;;;4.10;3.70;;;;;;;26.58;35.19;101144.16;4964544;28;20502;-83
2023/07/14 11:39:41;;;;;;;5.97;3.90;;;;;;;26.46;35.08;101135.50;4958706;28;20450;-83
2023/07/14 11:42:29;;;;;;;4.87;3.20;;;;;;;26.30;34.75;101135.75;4962299;28;20463;-87
2023/07/14 11:45:01;;;;;;;6.33;3.60;;;;;;;26.88;35.53;101140.91;4960004;28;20468;-83
2023/07/14 11:47:35;;;;;;;3.70;2.93;;;;;;;27.02;35.00;101138.97;4954392;28;20466;-83
2023/07/14 11:50:24;;;;;;;3.70;3.30;;;;;;;27.32;34.16;101136.75;4959727;28;20435;-84